createdAt,value
2019-03-28T00:01:07.404Z,102.50
2019-03-28T00:06:04.384Z,110.40
2019-03-28T00:11:01.401Z,112.17
2019-03-28T00:15:58.419Z,101.10
2019-03-28T00:20:55.894Z,92.30
2019-03-28T00:25:52.963Z,90.97
2019-03-28T00:30:50.076Z,95.47
2019-03-28T00:35:47.140Z,82.40
2019-03-28T00:40:44.282Z,89.70
2019-03-28T00:45:44.409Z,69.50
2019-03-28T00:50:40.233Z,73.27
2019-03-28T00:55:37.414Z,79.83
2019-03-28T01:00:35.018Z,77.83
2019-03-28T01:05:32.054Z,56.87
2019-03-28T01:10:32.109Z,52.83
2019-03-28T01:15:29.095Z,47.53
2019-03-28T01:20:26.495Z,39.23
2019-03-28T01:25:23.491Z,59.03
2019-03-28T01:30:20.551Z,49.87
2019-03-28T01:35:17.603Z,51.97
2019-03-28T01:40:14.602Z,49.17
2019-03-28T01:45:11.745Z,45.17
2019-03-28T01:50:09.088Z,37.27
2019-03-28T01:55:06.804Z,29.90
2019-03-28T02:00:09.321Z,36.50
2019-03-28T02:05:06.989Z,37.50
2019-03-28T02:10:05.850Z,39.70
2019-03-28T02:15:06.196Z,30.83
2019-03-28T02:20:06.665Z,16.43
2019-03-28T02:25:06.752Z,20.43
2019-03-28T02:30:07.170Z,19.50
2019-03-28T02:35:04.998Z,18.97
2019-03-28T02:40:03.301Z,14.77
2019-03-28T02:45:00.664Z,16.33
2019-03-28T02:49:57.716Z,13.83
2019-03-28T02:54:54.822Z,13.33
2019-03-28T02:59:52.379Z,14.73
2019-03-28T03:04:49.495Z,14.40
2019-03-28T03:09:46.617Z,16.23
2019-03-28T03:14:45.891Z,14.13
2019-03-28T03:19:42.934Z,15.77
2019-03-28T03:24:41.846Z,12.37
2019-03-28T03:29:38.955Z,14.93
2019-03-28T03:34:35.998Z,13.03
2019-03-28T03:39:33.102Z,19.20
2019-03-28T03:44:30.181Z,15.27
2019-03-28T03:49:27.257Z,13.70
2019-03-28T03:54:24.345Z,14.50
2019-03-28T03:59:22.490Z,13.87
2019-03-28T04:04:19.610Z,16.20
2019-03-28T04:09:17.533Z,16.70
2019-03-28T04:14:14.732Z,15.57
2019-03-28T04:19:12.077Z,15.73
2019-03-28T04:24:11.008Z,13.47
2019-03-28T04:29:10.233Z,15.17
2019-03-28T04:34:08.817Z,36.43
2019-03-28T04:39:06.333Z,48.93
2019-03-28T04:44:04.540Z,47.40
2019-03-28T04:49:01.714Z,32.87
2019-03-28T04:53:59.013Z,29.17
2019-03-28T04:59:00.271Z,34.77
2019-03-28T05:03:57.541Z,47.07
2019-03-28T05:08:54.837Z,71.73
2019-03-28T05:13:53.937Z,38.10
2019-03-28T05:18:52.486Z,34.83
2019-03-28T05:23:52.587Z,26.60
2019-03-28T05:28:57.406Z,24.57
2019-03-28T05:33:48.672Z,23.00
2019-03-28T05:38:46.280Z,14.57
2019-03-28T05:43:45.498Z,12.07
2019-03-28T05:48:43.415Z,14.23
2019-03-28T05:53:40.509Z,13.00
2019-03-28T05:58:38.152Z,13.83
2019-03-28T06:03:36.091Z,12.50
2019-03-28T06:08:33.211Z,12.83
2019-03-28T06:13:33.253Z,14.43
2019-03-28T06:18:33.212Z,14.43
2019-03-28T06:23:30.340Z,17.30
2019-03-28T06:28:27.436Z,12.93
2019-03-28T06:33:24.596Z,14.13
2019-03-28T06:38:21.861Z,16.87
2019-03-28T06:43:20.994Z,11.77
2019-03-28T06:48:20.597Z,16.57
2019-03-28T06:53:17.644Z,13.37
2019-03-28T06:58:21.128Z,17.90
2019-03-28T07:03:20.061Z,13.83
2019-03-28T07:08:17.471Z,13.40
2019-03-28T07:13:16.332Z,18.27
2019-03-28T07:18:13.347Z,14.73
2019-03-28T07:23:16.515Z,14.37
2019-03-28T07:28:13.753Z,17.07
2019-03-28T07:33:10.897Z,13.00
2019-03-28T07:38:08.673Z,11.07
2019-03-28T07:43:08.372Z,13.50
2019-03-28T07:48:05.742Z,15.17
2019-03-28T07:53:04.813Z,13.93
2019-03-28T07:58:01.958Z,14.17
2019-03-28T08:03:03.597Z,17.30
2019-03-28T08:07:58.153Z,13.03
2019-03-28T08:12:55.269Z,11.83
2019-03-28T08:17:52.311Z,13.97
2019-03-28T08:22:49.872Z,15.03
2019-03-28T08:27:48.263Z,19.27
2019-03-28T08:32:47.951Z,15.60
2019-03-28T08:37:45.301Z,19.27
2019-03-28T08:42:42.461Z,15.83
2019-03-28T08:47:39.527Z,18.03
2019-03-28T08:52:38.773Z,16.77
2019-03-28T08:57:37.733Z,15.80
2019-03-28T09:02:38.072Z,18.70
2019-03-28T09:07:41.622Z,23.07
2019-03-28T09:12:38.936Z,16.10
2019-03-28T09:17:36.130Z,16.60
2019-03-28T09:22:38.916Z,11.63
2019-03-28T09:27:41.318Z,10.47
2019-03-28T09:32:38.638Z,13.60
2019-03-28T09:37:35.722Z,14.67
2019-03-28T09:42:32.899Z,12.83
2019-03-28T09:47:31.205Z,16.03
2019-03-28T09:52:30.336Z,16.43
2019-03-28T09:57:27.640Z,17.33
2019-03-28T10:02:26.650Z,21.43
2019-03-28T10:07:25.727Z,18.20
2019-03-28T10:12:24.758Z,14.60
2019-03-28T10:17:59.202Z,18.80
2019-03-28T10:23:28.131Z,14.30
2019-03-28T10:28:34.612Z,15.17
2019-03-28T10:33:33.180Z,14.47
2019-03-28T10:38:30.356Z,16.23
2019-03-28T10:43:30.147Z,18.50
2019-03-28T10:48:27.517Z,21.43
2019-03-28T10:53:29.839Z,18.90
2019-03-28T10:58:26.719Z,21.40
2019-03-28T11:03:24.819Z,20.73
2019-03-28T11:08:22.031Z,19.83
2019-03-28T11:13:19.244Z,18.00
2019-03-28T11:18:17.235Z,19.27
2019-03-28T11:23:25.542Z,24.97
2019-03-28T11:28:23.520Z,18.97
2019-03-28T11:33:26.141Z,24.23
2019-03-28T11:38:29.675Z,24.90
2019-03-28T11:49:24.491Z,22.27
2019-03-28T11:54:41.514Z,29.60
2019-03-28T11:59:40.528Z,32.53
2019-03-28T12:04:38.857Z,31.47
2019-03-28T12:09:36.041Z,24.00
2019-03-28T12:14:38.657Z,26.67
2019-03-28T12:19:42.851Z,36.33
2019-03-28T12:24:40.015Z,44.40
2019-03-28T12:29:36.990Z,42.83
2019-03-28T12:34:37.357Z,40.47
2019-03-28T12:39:35.227Z,46.23
2019-03-28T12:44:32.489Z,38.30
2019-03-28T12:49:29.607Z,35.50
2019-03-28T12:54:26.797Z,35.40
2019-03-28T12:59:23.898Z,44.00
2019-03-28T13:04:21.321Z,51.77
2019-03-28T13:09:18.314Z,32.43
2019-03-28T13:14:15.393Z,31.90
2019-03-28T13:19:17.431Z,30.80
2019-03-28T13:24:14.550Z,30.53
2019-03-28T13:29:14.252Z,30.57
2019-03-28T13:34:14.437Z,33.97
2019-03-28T13:39:11.547Z,30.30
2019-03-28T13:44:12.254Z,27.97
2019-03-28T13:49:08.867Z,23.00
2019-03-28T13:54:06.148Z,29.73
2019-03-28T13:59:03.885Z,28.50
2019-03-28T14:04:02.793Z,28.87
2019-03-28T14:09:01.814Z,26.07
2019-03-28T14:14:03.869Z,27.43
2019-03-28T14:19:05.188Z,18.60
2019-03-28T14:24:17.039Z,20.47
2019-03-28T14:29:14.175Z,25.60
2019-03-28T14:34:13.105Z,19.47
2019-03-28T14:39:10.213Z,19.80
2019-03-28T14:44:07.351Z,20.37
2019-03-28T14:49:05.540Z,18.57
2019-03-28T14:54:02.621Z,24.10
2019-03-28T14:59:00.471Z,24.70
2019-03-28T15:04:00.285Z,25.57
2019-03-28T15:08:57.755Z,24.73
2019-03-28T15:13:54.767Z,27.73
2019-03-28T15:18:53.000Z,26.57
2019-03-28T15:23:50.020Z,27.83
2019-03-28T15:28:47.084Z,25.17
2019-03-28T15:33:44.133Z,22.23
2019-03-28T15:38:41.279Z,19.77
2019-03-28T15:43:38.349Z,26.87
2019-03-28T15:48:35.685Z,25.40
2019-03-28T15:53:33.256Z,28.53
2019-03-28T15:58:32.573Z,21.77
2019-03-28T16:03:29.684Z,19.70
2019-03-28T16:08:27.784Z,18.57
2019-03-28T16:13:25.129Z,17.43
2019-03-28T16:18:22.198Z,20.13
2019-03-28T16:23:19.307Z,16.03
2019-03-28T16:28:16.442Z,21.40
2019-03-28T16:33:13.469Z,17.63
2019-03-28T16:38:10.743Z,18.13
2019-03-28T16:43:07.813Z,17.13
2019-03-28T16:48:04.904Z,21.73
2019-03-28T16:53:01.985Z,22.90
2019-03-28T16:57:59.147Z,16.23
2019-03-28T17:02:56.177Z,20.70
2019-03-28T17:07:53.481Z,13.90
2019-03-28T17:12:50.486Z,13.27
2019-03-28T17:17:47.602Z,14.03
2019-03-28T17:22:44.572Z,12.20
2019-03-28T17:27:41.719Z,18.13
2019-03-28T17:32:38.881Z,19.57
2019-03-28T17:37:36.417Z,21.03
2019-03-28T17:42:33.790Z,18.73
2019-03-28T17:47:30.868Z,23.30
2019-03-28T17:52:28.027Z,19.30
2019-03-28T17:57:25.090Z,17.60
2019-03-28T18:02:22.152Z,27.23
2019-03-28T18:07:19.326Z,19.80
2019-03-28T18:12:16.363Z,21.80
2019-03-28T18:17:13.450Z,23.87
2019-03-28T18:22:10.400Z,20.53
2019-03-28T18:27:07.483Z,16.30
2019-03-28T18:32:04.488Z,20.90
2019-03-28T18:37:08.708Z,23.87
2019-03-28T18:42:05.699Z,26.67
2019-03-28T18:47:02.844Z,25.93
2019-03-28T18:51:59.930Z,18.53
2019-03-28T18:56:57.038Z,21.10
2019-03-28T19:01:54.135Z,28.43
2019-03-28T19:06:52.610Z,18.60
2019-03-28T19:11:49.657Z,18.03
2019-03-28T19:16:48.311Z,20.50
2019-03-28T19:21:45.584Z,19.20
2019-03-28T19:26:42.877Z,19.47
2019-03-28T19:31:40.129Z,20.73
2019-03-28T19:36:37.560Z,17.50
2019-03-28T19:41:34.627Z,16.67
2019-03-28T19:46:32.207Z,20.20
2019-03-28T19:51:29.787Z,39.33
2019-03-28T19:56:26.969Z,38.13
2019-03-28T20:01:24.105Z,32.13
2019-03-28T20:06:22.688Z,28.47
2019-03-28T20:11:20.785Z,57.20
2019-03-28T20:16:17.930Z,64.43
2019-03-28T20:21:15.057Z,61.77
2019-03-28T20:26:12.475Z,78.77
2019-03-28T20:31:09.633Z,87.80
2019-03-28T20:36:35.511Z,78.40
2019-03-28T20:41:05.585Z,79.47
2019-03-28T20:46:02.980Z,83.13
2019-03-28T20:51:03.294Z,105.67
2019-03-28T20:55:59.155Z,116.83
2019-03-28T21:00:56.137Z,104.80
2019-03-28T21:05:53.251Z,97.13
2019-03-28T21:10:50.317Z,130.43
2019-03-28T21:15:48.668Z,129.03
2019-03-28T21:20:45.645Z,143.63
2019-03-28T21:25:42.682Z,113.53
2019-03-28T21:30:47.138Z,90.93
2019-03-28T21:35:39.206Z,77.67
2019-03-28T21:40:36.613Z,86.97
2019-03-28T21:45:34.169Z,103.63
2019-03-28T21:50:31.248Z,89.63
2019-03-28T21:55:28.378Z,178.70
2019-03-28T22:00:25.537Z,157.90
2019-03-28T22:05:22.662Z,132.83
2019-03-28T22:10:19.698Z,163.23
2019-03-28T22:15:16.737Z,150.30
2019-03-28T22:20:15.137Z,189.37
2019-03-28T22:25:12.123Z,187.93
2019-03-28T22:30:09.619Z,128.30
2019-03-28T22:35:06.893Z,121.13
2019-03-28T22:40:06.574Z,114.37
2019-03-28T22:45:07.074Z,89.80
2019-03-28T22:50:07.154Z,85.67
2019-03-28T22:55:08.057Z,91.70
2019-03-28T23:00:09.149Z,85.93
2019-03-28T23:05:07.355Z,96.07
2019-03-28T23:10:07.222Z,90.23
2019-03-28T23:15:06.735Z,98.00
2019-03-28T23:20:07.866Z,98.47
2019-03-28T23:25:05.595Z,78.50
2019-03-28T23:30:05.861Z,67.80
2019-03-28T23:35:03.567Z,58.37
2019-03-28T23:40:00.635Z,58.67
2019-03-28T23:44:58.251Z,62.27
2019-03-28T23:49:55.321Z,64.87
2019-03-28T23:54:52.808Z,45.73
2019-03-28T23:59:49.937Z,53.90
